Country
Station

 

Weather  for  Lufkin, Angelina County Airport  -  United States    United States

  
16 °C (61 °F)
    
 
 

Current METAR for Lufkin, Angelina County Airport is :

KLFK 181453Z AUTO 06007KT 10SM OVC027 16/11 A3033 RMK AO2 RAE16 SLP268 P0000 60000 T01560111 53014 $

 

This is a report for Lufkin, Angelina County Airport - United States.
 
The report was made 5 minutes ago, at 14:53 UTC .
The wind was blowing at a speed of 3.6 meters per second (8.1 miles per hour) from east/northeast (060°).
 
The temperature was 16 °C (61 °F), with a dew-point at 11 °C (52 °F).
The atmospheric pressure was 1027 hPa (30.33 inHg).
The relative humidity was 72.2%.
 
The sky was overcast from a height of 823 meter (2700 feet)
 
The overall visibility was 16.1 kilometers (10.0 miles).
 

 
 
 
 

Country :   A   B   C   D   E   F   G   H   I   J   K   L   M   N   O   P   Q   R   S   T   U   V   W   Y   Z

 

Site Info  |  Disclaimer  |  Credits  |  Privacy
Contact us  |  Add to favorites
© 2013-2018 METARs - All rights reserved